Time;durP1;ratioP1;P1;durP2;ratioP2;P2;SDS_P1;SDS_P2;PMS_P1;PMS_P2;Temp;Humidity;BMP_temperature;BMP_pressure;BME280_temperature;BME280_humidity;BME280_pressure;Samples;Min_cycle;Max_cycle;Signal;HPM_P1;HPM_P2
2022/11/14 00:00:24;;;;;;;10.70;8.67;;;5.70;99.90;;;;;;5016246;28;20910;-60
2022/11/14 00:02:51;;;;;;;11.80;10.47;;;5.70;99.90;;;;;;5016434;28;20447;-60
2022/11/14 00:05:18;;;;;;;13.70;11.10;;;5.70;99.90;;;;;;5014799;28;20474;-60
2022/11/14 00:07:46;;;;;;;10.13;9.03;;;5.80;99.90;;;;;;5016300;28;20486;-60
2022/11/14 00:10:15;;;;;;;12.23;10.97;;;5.70;99.90;;;;;;5016089;28;20491;-60
2022/11/14 00:12:42;;;;;;;10.83;9.60;;;5.70;99.90;;;;;;5016307;28;20463;-61
2022/11/14 00:15:10;;;;;;;11.20;9.67;;;5.60;99.90;;;;;;5015902;28;20505;-60
2022/11/14 00:17:37;;;;;;;11.20;9.43;;;5.60;99.90;;;;;;5016218;28;20443;-60
2022/11/14 00:20:07;;;;;;;13.67;10.87;;;5.50;99.90;;;;;;5016178;28;20819;-60
2022/11/14 00:22:34;;;;;;;13.40;10.20;;;5.40;99.90;;;;;;5016346;28;20462;-60
2022/11/14 00:25:01;;;;;;;11.50;9.83;;;5.50;99.90;;;;;;5015726;28;20470;-60
2022/11/14 00:27:29;;;;;;;10.97;9.10;;;5.70;99.90;;;;;;5016776;28;20487;-60
2022/11/14 00:29:57;;;;;;;11.23;10.03;;;5.60;99.90;;;;;;5016004;28;20477;-60
2022/11/14 00:32:24;;;;;;;12.77;10.00;;;5.70;99.90;;;;;;5015674;28;20457;-60
2022/11/14 00:34:51;;;;;;;9.90;8.87;;;5.70;99.90;;;;;;5015664;28;20957;-60
2022/11/14 00:37:18;;;;;;;11.70;9.63;;;5.60;99.90;;;;;;5015859;28;20454;-60
2022/11/14 00:39:45;;;;;;;11.30;10.20;;;5.60;99.90;;;;;;5015595;28;20945;-60
2022/11/14 00:42:12;;;;;;;10.90;9.73;;;5.60;99.90;;;;;;5015470;28;20893;-60
2022/11/14 00:44:41;;;;;;;11.23;9.93;;;5.50;99.90;;;;;;5015651;28;20499;-60
2022/11/14 00:47:08;;;;;;;12.10;10.67;;;5.40;99.90;;;;;;5015431;28;20483;-60
2022/11/14 00:49:35;;;;;;;12.13;10.87;;;5.40;99.90;;;;;;5015594;28;20541;-59
2022/11/14 00:52:02;;;;;;;10.43;9.33;;;5.40;99.90;;;;;;5015593;28;20451;-60
2022/11/14 00:54:29;;;;;;;12.13;10.87;;;5.40;99.90;;;;;;5015191;28;20453;-60
2022/11/14 00:56:56;;;;;;;9.97;9.03;;;5.40;99.90;;;;;;5015489;28;20477;-60
2022/11/14 00:59:27;;;;;;;10.43;9.00;;;5.50;99.90;;;;;;5015161;28;20457;-60
2022/11/14 01:01:56;;;;;;;17.37;10.40;;;5.50;99.90;;;;;;5015542;28;20477;-60
2022/11/14 01:04:23;;;;;;;12.33;10.60;;;5.50;99.90;;;;;;5015026;28;20953;-60
2022/11/14 01:06:50;;;;;;;10.80;9.63;;;5.30;99.90;;;;;;5014838;28;20491;-60
2022/11/14 01:09:18;;;;;;;11.13;9.33;;;5.20;99.90;;;;;;5015247;28;20534;-60
2022/11/14 01:11:45;;;;;;;12.27;10.30;;;5.20;99.90;;;;;;5014919;28;20454;-60
2022/11/14 01:14:12;;;;;;;12.67;9.70;;;5.20;99.90;;;;;;5015192;28;20451;-60
2022/11/14 01:16:39;;;;;;;14.23;11.27;;;5.10;99.90;;;;;;5014687;28;20817;-61
2022/11/14 01:19:08;;;;;;;14.77;11.67;;;5.10;99.90;;;;;;5014774;28;20960;-60
2022/11/14 01:21:36;;;;;;;12.30;9.33;;;5.10;99.90;;;;;;5015027;28;20451;-60
2022/11/14 01:24:03;;;;;;;14.40;10.90;;;5.20;99.90;;;;;;5015032;28;20477;-60
2022/11/14 01:26:30;;;;;;;13.40;11.13;;;5.10;99.90;;;;;;5014533;28;21041;-60
2022/11/14 01:28:58;;;;;;;13.20;10.27;;;5.20;99.90;;;;;;5014900;28;20453;-60
2022/11/14 01:31:25;;;;;;;11.60;10.40;;;5.10;99.90;;;;;;5014882;28;20458;-60
2022/11/14 01:33:53;;;;;;;10.80;9.63;;;5.20;99.90;;;;;;5014681;28;20470;-60
2022/11/14 01:36:22;;;;;;;12.73;10.03;;;5.20;99.90;;;;;;5014787;28;20845;-60
2022/11/14 01:38:52;;;;;;;10.90;9.80;;;5.20;99.90;;;;;;5014597;28;20786;-60
2022/11/14 01:41:20;;;;;;;12.97;9.80;;;4.90;99.90;;;;;;5015204;28;20435;-60
2022/11/14 01:43:48;;;;;;;12.23;10.47;;;4.80;99.90;;;;;;5015451;28;20884;-60
2022/11/14 01:46:20;;;;;;;10.93;9.77;;;4.80;99.90;;;;;;5014395;28;21001;-61
2022/11/14 01:48:52;;;;;;;10.83;9.73;;;4.70;99.90;;;;;;5014675;28;20539;-61
2022/11/14 01:51:27;;;;;;;11.70;10.00;;;4.60;99.90;;;;;;5014828;28;20436;-60
2022/11/14 01:53:57;;;;;;;11.60;9.47;;;4.40;99.90;;;;;;5014552;28;20443;-60
2022/11/14 01:56:31;;;;;;;12.77;10.30;;;4.60;99.90;;;;;;5014458;28;20473;-60
2022/11/14 01:59:02;;;;;;;13.30;10.93;;;4.70;99.90;;;;;;5014345;28;20946;-60
2022/11/14 02:01:32;;;;;;;10.23;9.23;;;4.80;99.90;;;;;;5015089;28;20584;-60
2022/11/14 02:04:01;;;;;;;11.00;9.87;;;4.80;99.90;;;;;;5014534;28;20443;-60
2022/11/14 02:06:32;;;;;;;10.63;9.43;;;4.90;99.90;;;;;;5014004;28;20525;-60
2022/11/14 02:09:03;;;;;;;12.20;11.03;;;5.00;99.90;;;;;;5014984;28;20442;-60
2022/11/14 02:11:32;;;;;;;14.20;10.83;;;5.10;99.90;;;;;;5014250;28;20520;-60
2022/11/14 02:14:00;;;;;;;13.37;11.97;;;5.10;99.90;;;;;;5013870;28;20451;-61
2022/11/14 02:16:27;;;;;;;12.20;10.90;;;5.30;99.90;;;;;;5015115;28;20467;-60
2022/11/14 02:18:55;;;;;;;15.77;12.83;;;5.30;99.90;;;;;;5014338;28;20797;-62
2022/11/14 02:21:23;;;;;;;13.00;11.60;;;5.30;99.90;;;;;;5014309;28;20478;-60
2022/11/14 02:23:50;;;;;;;14.27;10.67;;;5.30;99.90;;;;;;5013996;28;20447;-60
2022/11/14 02:26:19;;;;;;;16.40;11.10;;;5.40;99.90;;;;;;5014061;28;20819;-60
2022/11/14 02:28:46;;;;;;;14.70;12.30;;;5.40;99.90;;;;;;5013309;28;20803;-61
2022/11/14 02:31:14;;;;;;;12.23;10.97;;;5.30;99.90;;;;;;5014223;28;20482;-60
2022/11/14 02:33:42;;;;;;;12.70;9.50;;;5.20;99.90;;;;;;5013652;28;20446;-60
2022/11/14 02:36:09;;;;;;;12.10;10.03;;;5.10;99.90;;;;;;5013942;28;20469;-60
2022/11/14 02:38:38;;;;;;;11.13;10.03;;;5.20;99.90;;;;;;5013631;28;20454;-60
2022/11/14 02:41:05;;;;;;;11.30;9.60;;;5.10;99.90;;;;;;5013969;28;20447;-61
2022/11/14 02:43:32;;;;;;;11.70;10.37;;;5.10;99.90;;;;;;5013760;28;20439;-60
2022/11/14 02:45:59;;;;;;;12.17;9.40;;;5.10;99.90;;;;;;5013529;28;20991;-60
2022/11/14 02:48:26;;;;;;;12.57;9.93;;;5.00;99.90;;;;;;5013837;28;20486;-60
2022/11/14 02:50:54;;;;;;;11.10;9.50;;;5.00;99.90;;;;;;5014679;28;20450;-60
2022/11/14 02:53:21;;;;;;;11.67;10.30;;;5.00;99.90;;;;;;5014336;28;20453;-60
2022/11/14 02:55:49;;;;;;;12.37;10.17;;;5.10;99.90;;;;;;5013746;28;20507;-60
2022/11/14 02:58:16;;;;;;;14.73;10.30;;;5.00;99.90;;;;;;5013443;28;20934;-60
2022/11/14 03:00:43;;;;;;;15.07;12.13;;;5.10;99.90;;;;;;5013472;28;20458;-60
2022/11/14 03:03:11;;;;;;;14.93;11.43;;;5.10;99.90;;;;;;5013423;28;20542;-60
2022/11/14 03:05:38;;;;;;;12.77;10.43;;;5.00;99.90;;;;;;5013479;28;20479;-60
2022/11/14 03:08:05;;;;;;;14.20;10.37;;;5.00;99.90;;;;;;5013714;28;20562;-60
2022/11/14 03:10:32;;;;;;;13.83;11.43;;;4.90;99.90;;;;;;5013404;28;20450;-60
2022/11/14 03:13:00;;;;;;;13.07;10.40;;;4.80;99.90;;;;;;5013684;28;20455;-60
2022/11/14 03:15:27;;;;;;;11.57;10.20;;;4.80;99.90;;;;;;5013283;28;20481;-61
2022/11/14 03:17:55;;;;;;;12.30;10.53;;;4.80;99.90;;;;;;5013316;28;20934;-61
2022/11/14 03:20:22;;;;;;;13.47;11.00;;;4.70;99.90;;;;;;5013591;28;20453;-60
2022/11/14 03:22:49;;;;;;;13.87;10.13;;;4.70;99.90;;;;;;5013301;28;20451;-60
2022/11/14 03:25:16;;;;;;;11.93;10.77;;;4.80;99.90;;;;;;5013174;28;20475;-60
2022/11/14 03:27:43;;;;;;;11.97;10.73;;;4.80;99.90;;;;;;5013470;28;20843;-60
2022/11/14 03:30:13;;;;;;;17.60;12.70;;;4.70;99.90;;;;;;5013520;28;20564;-60
2022/11/14 03:32:40;;;;;;;12.37;9.97;;;4.70;99.90;;;;;;5013192;28;20974;-61
2022/11/14 03:35:08;;;;;;;11.80;10.17;;;4.60;99.90;;;;;;5013335;28;20969;-60
2022/11/14 03:37:35;;;;;;;13.50;10.63;;;4.60;99.90;;;;;;5013115;28;20451;-60
2022/11/14 03:40:03;;;;;;;13.77;10.80;;;4.60;99.90;;;;;;5016214;28;20537;-60
2022/11/14 03:42:33;;;;;;;12.17;10.87;;;4.60;99.90;;;;;;5016934;28;20454;-60
2022/11/14 03:45:00;;;;;;;14.43;11.17;;;4.60;99.90;;;;;;5016872;28;20832;-60
2022/11/14 03:47:29;;;;;;;12.53;10.83;;;4.60;99.90;;;;;;5016803;28;20482;-60
2022/11/14 03:49:56;;;;;;;12.90;10.53;;;4.60;99.90;;;;;;5016517;28;20469;-60
2022/11/14 03:52:24;;;;;;;12.10;10.80;;;4.60;99.90;;;;;;5016749;28;20451;-60
2022/11/14 03:54:52;;;;;;;10.83;9.73;;;4.70;99.90;;;;;;5016611;28;20496;-60
2022/11/14 03:57:19;;;;;;;12.50;10.90;;;4.70;99.90;;;;;;5016625;28;20526;-60
2022/11/14 03:59:46;;;;;;;12.27;10.93;;;4.80;99.90;;;;;;5016293;28;20538;-60
2022/11/14 04:02:13;;;;;;;13.80;11.23;;;4.80;99.90;;;;;;5016266;28;20455;-60
2022/11/14 04:04:41;;;;;;;12.33;9.73;;;4.80;99.90;;;;;;5016449;28;20822;-60
2022/11/14 04:07:09;;;;;;;10.87;9.53;;;4.70;99.90;;;;;;5016019;28;20499;-61
2022/11/14 04:09:36;;;;;;;11.20;9.73;;;4.60;99.90;;;;;;5016411;28;20451;-60
2022/11/14 04:12:03;;;;;;;11.03;9.30;;;4.60;99.90;;;;;;5016396;28;20470;-60
2022/11/14 04:14:30;;;;;;;9.10;8.20;;;4.70;99.90;;;;;;5016267;28;20454;-60
2022/11/14 04:16:57;;;;;;;12.57;10.10;;;4.80;99.90;;;;;;5015939;28;20451;-60
2022/11/14 04:19:24;;;;;;;9.90;8.90;;;4.90;99.90;;;;;;5015939;28;20465;-61
2022/11/14 04:21:53;;;;;;;10.17;8.97;;;4.90;99.90;;;;;;5015909;28;20944;-60
2022/11/14 04:24:20;;;;;;;9.40;8.40;;;4.80;99.90;;;;;;5015777;28;20981;-60
2022/11/14 04:26:47;;;;;;;9.97;8.97;;;4.90;99.90;;;;;;5016092;28;20457;-60
2022/11/14 04:29:14;;;;;;;9.57;8.67;;;4.90;99.90;;;;;;5015996;28;20487;-60
2022/11/14 04:31:41;;;;;;;11.57;9.00;;;4.90;99.90;;;;;;5016047;28;20451;-60
2022/11/14 04:34:08;;;;;;;8.83;7.93;;;4.90;99.90;;;;;;5015879;28;20821;-60
2022/11/14 04:36:35;;;;;;;9.70;8.23;;;4.90;99.90;;;;;;5015917;28;20473;-61
2022/11/14 04:39:04;;;;;;;9.63;8.60;;;4.90;99.90;;;;;;5015891;28;20534;-60
2022/11/14 04:41:31;;;;;;;7.67;6.90;;;4.90;99.90;;;;;;5015809;28;20446;-61
2022/11/14 04:43:58;;;;;;;10.93;9.23;;;4.90;99.90;;;;;;5015775;28;20477;-60
2022/11/14 04:46:25;;;;;;;11.30;7.57;;;5.00;99.90;;;;;;5015659;28;20467;-60
2022/11/14 04:48:52;;;;;;;11.00;9.37;;;5.00;99.90;;;;;;5015646;28;20486;-60
2022/11/14 04:51:19;;;;;;;10.00;9.00;;;5.00;99.90;;;;;;5014602;28;20449;-61
2022/11/14 04:53:46;;;;;;;8.83;7.73;;;5.00;99.90;;;;;;5015566;28;20454;-60
2022/11/14 04:56:15;;;;;;;11.00;8.17;;;5.00;99.90;;;;;;5015497;28;20824;-60
2022/11/14 04:58:42;;;;;;;9.20;8.33;;;5.00;99.90;;;;;;5015226;28;20447;-60
2022/11/14 05:01:09;;;;;;;11.93;8.80;;;4.90;99.90;;;;;;5015484;28;20522;-60
2022/11/14 05:03:37;;;;;;;10.53;8.33;;;4.90;99.90;;;;;;5015075;28;20469;-60
2022/11/14 05:06:04;;;;;;;9.70;8.80;;;4.90;99.90;;;;;;5015051;28;20491;-60
2022/11/14 05:08:32;;;;;;;9.80;8.80;;;4.90;99.90;;;;;;5015249;28;20487;-60
2022/11/14 05:10:59;;;;;;;10.60;9.40;;;5.00;99.90;;;;;;5015240;28;20474;-60
2022/11/14 05:13:27;;;;;;;9.67;8.67;;;5.00;99.90;;;;;;5015215;28;20451;-60
2022/11/14 05:15:58;;;;;;;9.07;8.17;;;5.00;99.90;;;;;;5015263;28;20471;-60
2022/11/14 05:18:25;;;;;;;11.03;9.00;;;5.00;99.90;;;;;;5015209;28;20443;-60
2022/11/14 05:20:52;;;;;;;11.20;9.80;;;5.00;99.90;;;;;;5015081;28;20814;-60
2022/11/14 05:23:21;;;;;;;10.60;9.53;;;5.00;99.90;;;;;;5015500;28;20459;-60
2022/11/14 05:25:58;;;;;;;8.77;7.90;;;5.00;99.90;;;;;;5015240;28;20894;-60
2022/11/14 05:28:25;;;;;;;9.73;8.80;;;5.00;99.90;;;;;;5014988;28;20466;-60
2022/11/14 05:30:53;;;;;;;11.33;8.93;;;5.00;99.90;;;;;;5015085;28;20794;-60
2022/11/14 05:33:20;;;;;;;9.27;8.30;;;5.00;99.90;;;;;;5014591;28;20550;-60
2022/11/14 05:35:48;;;;;;;9.00;8.13;;;5.00;99.90;;;;;;5015048;28;20804;-61
2022/11/14 05:38:15;;;;;;;10.33;8.40;;;4.90;99.90;;;;;;5014963;28;20447;-60
2022/11/14 05:40:42;;;;;;;11.47;8.77;;;5.00;99.90;;;;;;5014471;28;20447;-60
2022/11/14 05:43:09;;;;;;;10.23;9.20;;;5.00;99.90;;;;;;5014747;28;20934;-60
2022/11/14 05:45:36;;;;;;;10.47;9.07;;;5.00;99.90;;;;;;5014890;28;20473;-60
2022/11/14 05:48:05;;;;;;;9.00;8.10;;;5.10;99.90;;;;;;5015378;28;20489;-60
2022/11/14 05:50:32;;;;;;;9.17;8.13;;;5.10;99.90;;;;;;5014584;28;20451;-60
2022/11/14 05:52:59;;;;;;;9.43;8.50;;;5.20;99.90;;;;;;5014212;28;20457;-60
2022/11/14 05:55:26;;;;;;;10.10;8.20;;;5.20;99.90;;;;;;5014373;28;20562;-60
2022/11/14 05:57:54;;;;;;;10.13;8.00;;;5.20;99.90;;;;;;5014424;28;20447;-60
2022/11/14 06:00:21;;;;;;;9.03;7.80;;;5.30;99.90;;;;;;5014358;28;20447;-60
2022/11/14 06:02:51;;;;;;;10.07;8.93;;;5.30;99.90;;;;;;5014087;28;21008;-60
2022/11/14 06:05:20;;;;;;;7.90;7.20;;;5.30;99.90;;;;;;5014062;28;20483;-59
2022/11/14 06:07:47;;;;;;;8.00;7.20;;;5.30;99.90;;;;;;5014118;28;20574;-60
2022/11/14 06:10:14;;;;;;;8.83;7.93;;;5.40;99.90;;;;;;5013772;28;20447;-60
2022/11/14 06:12:41;;;;;;;7.87;7.07;;;5.40;99.90;;;;;;5013752;28;20457;-60
2022/11/14 06:15:09;;;;;;;9.10;8.13;;;5.60;99.90;;;;;;5013815;28;20471;-61
2022/11/14 06:17:36;;;;;;;12.37;9.83;;;5.60;99.90;;;;;;5014162;28;20447;-60
2022/11/14 06:20:04;;;;;;;8.73;7.87;;;5.70;99.90;;;;;;5013986;28;20844;-60
2022/11/14 06:22:34;;;;;;;10.23;8.17;;;5.70;99.90;;;;;;5013840;28;20447;-60
2022/11/14 06:25:01;;;;;;;8.80;6.97;;;5.60;99.90;;;;;;5013528;28;21096;-60
2022/11/14 06:27:28;;;;;;;10.00;7.43;;;5.70;99.90;;;;;;5013676;28;20447;-60
2022/11/14 06:29:56;;;;;;;8.57;7.67;;;5.80;99.90;;;;;;5013355;28;20451;-60
2022/11/14 06:32:23;;;;;;;9.27;7.67;;;5.70;99.90;;;;;;5014468;28;20447;-60
2022/11/14 06:34:50;;;;;;;7.90;7.20;;;5.80;99.90;;;;;;5013563;28;20574;-60
2022/11/14 06:37:17;;;;;;;8.53;7.60;;;5.90;99.90;;;;;;5013728;28;20451;-60
2022/11/14 06:39:46;;;;;;;7.23;6.57;;;6.00;99.90;;;;;;5013217;28;20457;-60
2022/11/14 06:42:13;;;;;;;8.67;7.50;;;6.10;99.90;;;;;;5013225;28;20932;-60
2022/11/14 06:44:40;;;;;;;7.33;6.63;;;6.10;99.90;;;;;;5013298;28;20822;-61
2022/11/14 06:47:07;;;;;;;8.77;7.87;;;6.10;99.90;;;;;;5012944;28;20815;-60
2022/11/14 06:49:34;;;;;;;7.90;7.13;;;6.00;99.90;;;;;;5013128;28;20574;-60
2022/11/14 06:52:01;;;;;;;8.23;7.37;;;6.00;99.90;;;;;;5012954;28;20941;-60
2022/11/14 06:54:28;;;;;;;8.83;7.93;;;6.00;99.90;;;;;;5013465;28;20443;-60
2022/11/14 06:56:57;;;;;;;8.03;7.13;;;6.00;99.90;;;;;;5013633;28;20476;-60
2022/11/14 06:59:24;;;;;;;7.50;6.80;;;6.00;99.90;;;;;;5013443;28;20476;-60
2022/11/14 07:01:51;;;;;;;10.37;6.93;;;6.10;99.90;;;;;;5013196;28;20477;-61
2022/11/14 07:04:18;;;;;;;8.60;7.70;;;6.10;99.90;;;;;;5013361;28;20561;-60
2022/11/14 07:06:45;;;;;;;7.40;6.70;;;6.20;99.90;;;;;;5013161;28;20554;-60
2022/11/14 07:09:13;;;;;;;8.20;6.67;;;6.20;99.90;;;;;;5013348;28;20479;-60
2022/11/14 07:11:40;;;;;;;10.47;8.07;;;6.30;99.90;;;;;;5013481;28;20451;-60
2022/11/14 07:14:09;;;;;;;8.80;7.20;;;6.30;99.90;;;;;;5013978;28;20454;-60
2022/11/14 07:16:36;;;;;;;9.13;7.93;;;6.40;99.90;;;;;;5016951;28;20467;-61
2022/11/14 07:19:05;;;;;;;7.87;6.77;;;6.40;99.90;;;;;;5018107;28;20800;-61
2022/11/14 07:21:34;;;;;;;8.30;7.50;;;6.30;99.90;;;;;;5017170;28;20830;-61
2022/11/14 07:24:01;;;;;;;7.77;6.97;;;6.40;99.90;;;;;;5016687;28;20459;-61
2022/11/14 07:26:28;;;;;;;7.17;6.23;;;6.40;99.90;;;;;;5016483;28;20481;-61
2022/11/14 07:28:55;;;;;;;8.77;6.70;;;6.50;99.90;;;;;;5016882;28;20845;-61
2022/11/14 07:31:24;;;;;;;9.20;8.30;;;6.50;99.90;;;;;;5017026;28;20540;-61
2022/11/14 07:33:51;;;;;;;9.13;8.23;;;6.60;99.90;;;;;;5016505;28;20541;-61
2022/11/14 07:36:18;;;;;;;7.27;6.50;;;6.60;99.90;;;;;;5016824;28;20577;-61
2022/11/14 07:38:45;;;;;;;8.00;6.87;;;6.60;99.90;;;;;;5016669;28;20454;-61
2022/11/14 07:41:14;;;;;;;9.23;7.97;;;6.60;99.90;;;;;;5016331;28;21001;-60
2022/11/14 07:43:42;;;;;;;7.73;6.77;;;6.60;99.90;;;;;;5016543;28;20550;-62
2022/11/14 07:46:12;;;;;;;10.20;7.83;;;6.70;99.90;;;;;;5016422;28;20481;-60
2022/11/14 07:48:41;;;;;;;11.10;7.30;;;6.60;99.90;;;;;;5016552;28;20471;-61
2022/11/14 07:51:14;;;;;;;8.67;7.30;;;6.70;99.90;;;;;;5016458;28;20829;-62
2022/11/14 07:53:41;;;;;;;8.80;6.30;;;6.80;99.90;;;;;;5016239;28;20432;-61
2022/11/14 07:56:09;;;;;;;9.33;7.40;;;6.90;99.90;;;;;;5015990;28;20503;-61
2022/11/14 07:58:37;;;;;;;8.40;7.07;;;7.00;99.90;;;;;;5016278;28;20477;-61
2022/11/14 08:01:06;;;;;;;8.03;7.10;;;7.10;99.90;;;;;;5016169;28;20439;-61
2022/11/14 08:03:33;;;;;;;7.77;6.80;;;7.10;99.90;;;;;;5015536;28;20490;-62
2022/11/14 08:06:03;;;;;;;9.63;7.43;;;7.20;99.90;;;;;;5015746;28;20577;-62
2022/11/14 08:08:30;;;;;;;12.87;7.90;;;7.20;99.90;;;;;;5016131;28;20566;-60
2022/11/14 08:10:58;;;;;;;7.40;6.60;;;7.30;99.90;;;;;;5015796;28;20451;-62
2022/11/14 08:13:25;;;;;;;7.63;6.93;;;7.30;99.90;;;;;;5016109;28;20535;-62
2022/11/14 08:15:53;;;;;;;9.70;7.87;;;7.30;99.90;;;;;;5015983;28;20467;-61
2022/11/14 08:18:20;;;;;;;8.50;7.43;;;7.40;99.90;;;;;;5015635;28;20550;-61
2022/11/14 08:20:47;;;;;;;7.83;6.80;;;7.40;99.90;;;;;;5015925;28;20806;-62
2022/11/14 08:23:16;;;;;;;8.93;7.27;;;7.40;99.90;;;;;;5015792;28;20447;-61
2022/11/14 08:25:43;;;;;;;7.93;6.90;;;7.40;99.90;;;;;;5014337;28;20844;-61
2022/11/14 08:28:10;;;;;;;10.20;7.80;;;7.40;99.90;;;;;;5015734;28;20473;-60
2022/11/14 08:30:37;;;;;;;9.67;7.40;;;7.30;99.90;;;;;;5015570;28;20839;-61
2022/11/14 08:33:05;;;;;;;8.93;7.93;;;7.40;99.90;;;;;;5016283;28;20447;-61
2022/11/14 08:35:34;;;;;;;7.70;6.90;;;7.50;99.90;;;;;;5015886;28;20475;-61
2022/11/14 08:38:01;;;;;;;7.10;6.40;;;7.60;99.90;;;;;;5015292;28;20455;-62
2022/11/14 08:40:30;;;;;;;7.97;6.57;;;7.70;99.90;;;;;;5015801;28;20470;-60
2022/11/14 08:43:01;;;;;;;8.17;6.23;;;7.70;99.90;;;;;;5015121;28;20439;-62
2022/11/14 08:45:28;;;;;;;9.53;7.10;;;7.80;99.90;;;;;;5015134;28;20822;-61
2022/11/14 08:47:55;;;;;;;5.90;5.40;;;7.90;99.90;;;;;;5015502;28;20506;-61
2022/11/14 08:50:23;;;;;;;8.17;6.17;;;7.90;99.90;;;;;;5015059;28;20482;-61
2022/11/14 08:52:51;;;;;;;5.60;5.10;;;8.00;99.90;;;;;;5015129;28;20450;-62
2022/11/14 08:55:18;;;;;;;7.43;5.40;;;8.00;99.90;;;;;;5015435;28;20471;-61
2022/11/14 08:57:47;;;;;;;6.10;5.50;;;8.00;99.90;;;;;;5015481;28;20609;-62
2022/11/14 09:00:15;;;;;;;5.70;4.93;;;8.10;99.90;;;;;;5015307;28;20454;-62
2022/11/14 09:02:42;;;;;;;6.70;5.47;;;8.20;99.90;;;;;;5014882;28;20443;-61
2022/11/14 09:05:10;;;;;;;7.43;4.23;;;8.30;99.90;;;;;;5014928;28;20475;-61
2022/11/14 09:07:37;;;;;;;6.00;5.30;;;8.30;99.90;;;;;;5014373;28;20475;-61
2022/11/14 09:10:05;;;;;;;4.97;4.20;;;8.40;99.90;;;;;;5015015;28;20578;-60
2022/11/14 09:12:32;;;;;;;4.10;3.63;;;8.40;99.90;;;;;;5014737;28;20462;-60
2022/11/14 09:15:01;;;;;;;4.60;4.00;;;8.50;99.90;;;;;;5014702;28;20490;-61
2022/11/14 09:17:28;;;;;;;5.23;4.73;;;8.60;99.90;;;;;;5015354;28;20447;-61
2022/11/14 09:19:55;;;;;;;5.40;4.57;;;8.60;99.90;;;;;;5014816;28;20454;-60
2022/11/14 09:22:23;;;;;;;7.83;4.53;;;8.60;99.90;;;;;;5014868;28;20451;-60
2022/11/14 09:24:50;;;;;;;7.83;5.17;;;8.70;99.90;;;;;;5014298;28;20982;-60
2022/11/14 09:27:18;;;;;;;3.70;3.40;;;8.70;99.90;;;;;;5014773;28;20447;-60
2022/11/14 09:29:45;;;;;;;4.47;4.07;;;8.80;99.90;;;;;;5014706;28;20839;-60
2022/11/14 09:32:14;;;;;;;4.93;4.27;;;8.80;99.90;;;;;;5014702;28;20482;-60
2022/11/14 09:34:44;;;;;;;4.73;3.80;;;8.80;99.90;;;;;;5014485;28;20510;-60
2022/11/14 09:37:12;;;;;;;4.63;4.20;;;8.90;99.90;;;;;;5014057;28;20934;-60
2022/11/14 09:39:40;;;;;;;6.17;4.60;;;9.00;99.90;;;;;;5014317;28;20447;-60
2022/11/14 09:42:22;;;;;;;4.00;3.47;;;9.00;99.90;;;;;;5014438;28;20459;-60
2022/11/14 09:44:56;;;;;;;4.43;3.50;;;9.10;99.90;;;;;;5014535;28;20570;-60
2022/11/14 09:47:29;;;;;;;3.83;3.20;;;9.20;99.90;;;;;;5014491;28;20436;-60
2022/11/14 09:50:02;;;;;;;4.00;3.70;;;9.20;99.90;;;;;;5014270;28;20471;-60
2022/11/14 09:52:36;;;;;;;5.23;3.23;;;9.30;99.90;;;;;;5013971;28;20940;-60
2022/11/14 09:55:11;;;;;;;3.90;3.60;;;9.40;99.90;;;;;;5014239;28;20467;-61
2022/11/14 09:57:40;;;;;;;4.10;3.80;;;9.50;99.90;;;;;;5014353;28;20427;-61
2022/11/14 10:00:16;;;;;;;3.60;3.30;;;9.60;99.90;;;;;;5014273;28;20812;-61
2022/11/14 10:03:01;;;;;;;4.00;3.70;;;9.70;99.90;;;;;;5013789;28;20457;-60
2022/11/14 10:05:43;;;;;;;4.60;3.47;;;9.70;99.90;;;;;;5014154;28;20557;-60
2022/11/14 10:08:23;;;;;;;3.93;3.53;;;9.80;99.90;;;;;;5014167;28;20439;-61
2022/11/14 10:10:54;;;;;;;3.93;3.50;;;9.90;99.90;;;;;;5013792;28;20470;-61
2022/11/14 10:13:43;;;;;;;4.07;3.67;;;10.00;99.90;;;;;;5014474;28;20461;-61
2022/11/14 10:16:18;;;;;;;3.93;3.50;;;10.20;99.90;;;;;;5013678;28;20499;-60
2022/11/14 10:19:03;;;;;;;3.63;3.10;;;10.40;99.90;;;;;;5014530;28;20427;-60
2022/11/14 10:21:46;;;;;;;6.37;4.50;;;10.50;99.90;;;;;;5013760;28;20514;-60
2022/11/14 10:24:29;;;;;;;3.93;3.63;;;10.80;99.90;;;;;;5013663;28;20526;-60
2022/11/14 10:27:02;;;;;;;4.40;3.73;;;11.40;99.90;;;;;;5013924;28;20502;-60
2022/11/14 10:29:49;;;;;;;7.07;3.43;;;12.40;99.90;;;;;;5013631;28;20477;-60
2022/11/14 10:32:27;;;;;;;3.67;3.20;;;12.40;99.90;;;;;;5013853;28;20437;-60
2022/11/14 10:35:02;;;;;;;3.73;3.37;;;12.30;99.90;;;;;;5013931;28;20481;-60
2022/11/14 10:37:35;;;;;;;4.70;3.43;;;11.90;99.90;;;;;;5013533;28;20439;-60
2022/11/14 10:40:15;;;;;;;3.60;3.30;;;11.60;99.90;;;;;;5013785;28;20772;-60
2022/11/14 10:42:46;;;;;;;4.33;3.47;;;11.30;99.90;;;;;;5013777;28;20438;-60
2022/11/14 10:45:22;;;;;;;4.87;3.50;;;11.20;99.90;;;;;;5013140;28;21027;-60
2022/11/14 10:47:54;;;;;;;5.00;4.23;;;11.00;99.90;;;;;;5013321;28;20997;-60
2022/11/14 10:50:27;;;;;;;5.70;3.67;;;10.90;99.90;;;;;;5016200;28;20999;-60
2022/11/14 10:53:00;;;;;;;5.90;4.40;;;10.80;99.90;;;;;;5017332;28;20527;-60
2022/11/14 10:55:27;;;;;;;5.00;4.13;;;10.80;99.90;;;;;;5017382;28;20467;-60
2022/11/14 10:57:54;;;;;;;3.63;3.33;;;11.00;99.90;;;;;;5017080;28;20450;-59
2022/11/14 11:00:22;;;;;;;4.00;3.50;;;11.10;99.90;;;;;;5017402;28;20534;-59
2022/11/14 11:02:52;;;;;;;4.10;3.70;;;11.20;99.90;;;;;;5017284;28;20453;-60
2022/11/14 11:05:21;;;;;;;4.30;3.70;;;11.20;99.90;;;;;;5017511;28;20482;-60
2022/11/14 11:13:35;;;;;;;3.73;3.40;;;12.00;99.90;;;;;;5017113;28;20403;-60
2022/11/14 11:16:04;;;;;;;4.20;3.80;;;11.90;99.90;;;;;;5017046;28;20822;-59
2022/11/14 11:18:33;;;;;;;4.30;3.20;;;12.00;99.90;;;;;;5017019;28;20541;-59
2022/11/14 11:21:10;;;;;;;4.67;4.27;;;12.10;99.90;;;;;;5016719;28;20494;-60
2022/11/14 11:23:49;;;;;;;3.77;3.33;;;12.30;99.90;;;;;;5016712;28;20519;-60
2022/11/14 11:26:19;;;;;;;3.70;3.37;;;12.40;99.90;;;;;;5016982;28;20824;-60
2022/11/14 11:29:03;;;;;;;3.93;3.03;;;12.30;99.90;;;;;;5017048;28;20451;-60
2022/11/14 11:31:50;;;;;;;3.67;3.37;;;12.40;99.90;;;;;;5016805;28;20763;-60
2022/11/14 11:34:20;;;;;;;4.97;3.10;;;12.30;99.90;;;;;;5017042;28;20450;-59
2022/11/14 11:36:53;;;;;;;4.73;3.33;;;12.30;99.90;;;;;;5016415;28;20542;-59
2022/11/14 11:39:26;;;;;;;3.53;3.23;;;12.00;99.90;;;;;;5016556;28;20972;-60
2022/11/14 11:42:02;;;;;;;2.90;2.67;;;12.00;99.90;;;;;;5016774;28;20427;-60
2022/11/14 11:44:36;;;;;;;3.10;2.90;;;11.80;99.90;;;;;;5017198;28;20771;-60
2022/11/14 11:47:08;;;;;;;3.10;2.80;;;11.80;99.90;;;;;;5016448;28;20431;-60
2022/11/14 11:49:43;;;;;;;2.80;2.60;;;11.80;99.90;;;;;;5017152;28;20477;-60
2022/11/14 11:52:17;;;;;;;2.47;2.27;;;11.80;99.90;;;;;;5016626;28;20510;-59
2022/11/14 11:55:01;;;;;;;3.37;2.30;;;11.90;99.90;;;;;;5016256;28;20466;-59
2022/11/14 11:57:34;;;;;;;2.67;2.47;;;11.90;99.90;;;;;;5016473;28;20481;-60
2022/11/14 12:00:07;;;;;;;3.70;2.33;;;11.80;99.90;;;;;;5016332;28;20432;-60
2022/11/14 12:02:43;;;;;;;3.00;2.70;;;11.80;99.90;;;;;;5016579;28;20455;-60
2022/11/14 12:05:15;;;;;;;2.63;2.43;;;11.80;99.90;;;;;;5016041;28;20478;-59
2022/11/14 12:07:51;;;;;;;6.47;2.47;;;11.70;99.90;;;;;;5015982;28;20487;-59
2022/11/14 12:10:24;;;;;;;3.70;2.70;;;11.70;99.90;;;;;;5016197;28;20470;-60
2022/11/14 12:13:29;;;;;;;2.63;2.43;;;11.70;99.90;;;;;;5015957;28;20474;-59
2022/11/14 12:16:09;;;;;;;2.60;2.07;;;11.70;99.90;;;;;;5016001;28;20470;-60
2022/11/14 12:19:15;;;;;;;5.10;2.80;;;11.70;99.90;;;;;;5015722;28;20506;-60
2022/11/14 12:22:05;;;;;;;2.53;2.33;;;11.80;99.90;;;;;;4935776;29;20856;-60
2022/11/14 12:25:23;;;;;;;3.07;2.70;;;11.80;99.90;;;;;;5015672;28;20438;-59
2022/11/14 12:28:09;;;;;;;2.50;1.90;;;11.90;99.90;;;;;;4931509;29;20459;-59
2022/11/14 12:30:38;;;;;;;2.47;2.27;;;12.10;99.90;;;;;;5015761;28;20477;-59
2022/11/14 12:33:10;;;;;;;3.03;2.63;;;12.20;99.90;;;;;;5015524;28;20451;-59
2022/11/14 12:35:38;;;;;;;2.87;2.67;;;12.50;99.90;;;;;;5015364;28;20497;-59
2022/11/14 12:38:13;;;;;;;2.87;2.67;;;12.70;99.90;;;;;;5015434;28;20454;-59
2022/11/14 12:40:48;;;;;;;2.53;2.33;;;12.80;99.90;;;;;;5014959;28;20529;-59
2022/11/14 12:43:32;;;;;;;3.23;2.60;;;13.00;99.90;;;;;;5015055;28;20905;-60
2022/11/14 12:46:01;;;;;;;3.40;2.90;;;13.00;99.90;;;;;;5014584;28;20548;-60
2022/11/14 12:48:37;;;;;;;2.87;2.60;;;13.20;99.90;;;;;;5015200;28;20451;-59
2022/11/14 12:51:26;;;;;;;4.27;2.43;;;13.10;99.90;;;;;;5015032;28;20478;-59
2022/11/14 12:53:54;;;;;;;2.73;2.30;;;13.00;99.90;;;;;;5014531;28;20451;-59
2022/11/14 12:56:47;;;;;;;4.20;2.37;;;13.10;99.90;;;;;;5015144;28;20474;-59
2022/11/14 12:59:39;;;;;;;3.73;2.63;;;13.20;99.90;;;;;;5015329;28;20428;-59
2022/11/14 13:02:41;;;;;;;2.30;2.10;;;13.30;99.90;;;;;;5015264;28;20430;-60
2022/11/14 13:05:33;;;;;;;2.63;2.30;;;13.40;99.90;;;;;;4984670;28;20486;-59
2022/11/14 13:08:16;;;;;;;4.00;2.73;;;13.50;99.90;;;;;;5014482;28;20479;-60